This is the latest recevied weather packets stored in our database for station/object AD8BV. If no packets are shown the sender has not sent any weather packets the latest 1 day(s).
| Time | Temp. | Humidity | Pressure | Rain* | Wind** | Luminosity | Snow |
|---|---|---|---|---|---|---|---|
| 1836274755 | 16.67° C | 93% | 1022.2 hPa | 0 mm | 0 m/s | 0 W/m² | - |
| 1836274453 | 16.67° C | 93% | 1022.4 hPa | 0 mm | 0 m/s | 0 W/m² | - |
| 1836274306 | 16.67° C | 93% | 1022.4 hPa | 0 mm | 0 m/s | 0 W/m² | - |
| 1836274151 | 16.67° C | 93% | 1022.4 hPa | 0 mm | 0 m/s | 0 W/m² | - |
| 1778035010 | 8.33° C | 66% | 1010.7 hPa | 0 mm | 0 m/s | 0 W/m² | - |
| 1778034708 | 8.33° C | 65% | 1010.6 hPa | 0 mm | 0 m/s | 0 W/m² | - |
| 1778034405 | 8.33° C | 65% | 1010.5 hPa | 0 mm | 0 m/s | 0 W/m² | - |
| 1778034102 | 8.33° C | 68% | 1010.5 hPa | 0 mm | 0 m/s | 0 W/m² | - |
| 1778033800 | 8.33° C | 66% | 1010.7 hPa | 0 mm | 0 m/s | 0 W/m² | - |
| 1778033497 | 8.33° C | 66% | 1010.5 hPa | 0 mm | 0 m/s | 0 W/m² | - |
| 1778033194 | 8.33° C | 67% | 1010.6 hPa | 0 mm | 0 m/s | 0 W/m² | - |
| 1778032891 | 8.33° C | 64% | 1010.3 hPa | 0 mm | 0 m/s | 0 W/m² | - |
| 1778032589 | 8.33° C | 65% | 1010.4 hPa | 0 mm | 0 m/s | 0 W/m² | - |
| 1778032286 | 8.33° C | 65% | 1010.3 hPa | 0 mm | 0 m/s | 0 W/m² | - |
| 1778031983 | 8.33° C | 66% | 1010.3 hPa | 0 mm | 0 m/s | 0 W/m² | - |
| 1778031678 | 8.33° C | 64% | 1010.3 hPa | 0 mm | 0 m/s | 0 W/m² | - |
| 1778031377 | 8.33° C | 65% | 1010.4 hPa | 0 mm | 0 m/s | 0 W/m² | - |
| 1778031073 | 8.33° C | 63% | 1010.4 hPa | 0 mm | 0 m/s | 0 W/m² | - |
| 1778030770 | 8.33° C | 63% | 1010.1 hPa | 0 mm | 0 m/s | 0 W/m² | - |
| 1778030466 | 8.33° C | 64% | 1010 hPa | 0 mm | 0 m/s | 0 W/m² | - |
| 1778030164 | 8.33° C | 60% | 1010.1 hPa | 0 mm | 0.89 m/s, 278° | 0 W/m² | - |
| 1778029860 | 8.89° C | 62% | 1010 hPa | 0 mm | 0 m/s | 0 W/m² | - |
| 1778029554 | 8.89° C | 63% | 1010 hPa | 0 mm | 0 m/s | 0 W/m² | - |
| 1778029250 | 8.89° C | 61% | 1010 hPa | 0 mm | 0 m/s | 0 W/m² | - |
| 1778028947 | 9.44° C | 60% | 1009.9 hPa | 0 mm | 0 m/s | 0 W/m² | - |
* Rain latest hour (hover to see other rain measurements)
** Current wind speed in m/s (hover to see current wind gust speed)